sensor_id;sensor_type;location;lat;lon;timestamp;P1;durP1;ratioP1;P2;durP2;ratioP2
29940;SDS011;16801;53.562;10.038;2022-11-15T00:01:06;20.90;;;11.43;;
29940;SDS011;16801;53.562;10.038;2022-11-15T00:04:47;17.60;;;11.23;;
29940;SDS011;16801;53.562;10.038;2022-11-15T00:08:28;16.20;;;9.43;;
29940;SDS011;16801;53.562;10.038;2022-11-15T00:12:08;11.30;;;7.77;;
29940;SDS011;16801;53.562;10.038;2022-11-15T00:15:47;14.57;;;10.03;;
29940;SDS011;16801;53.562;10.038;2022-11-15T00:19:27;13.73;;;8.60;;
29940;SDS011;16801;53.562;10.038;2022-11-15T00:23:07;11.57;;;8.63;;
29940;SDS011;16801;53.562;10.038;2022-11-15T00:26:47;11.67;;;7.83;;
29940;SDS011;16801;53.562;10.038;2022-11-15T00:30:26;9.83;;;8.23;;
29940;SDS011;16801;53.562;10.038;2022-11-15T00:34:06;13.50;;;8.30;;
29940;SDS011;16801;53.562;10.038;2022-11-15T00:37:46;12.37;;;8.47;;
29940;SDS011;16801;53.562;10.038;2022-11-15T00:41:27;14.60;;;9.90;;
29940;SDS011;16801;53.562;10.038;2022-11-15T00:45:07;14.43;;;9.93;;
29940;SDS011;16801;53.562;10.038;2022-11-15T00:48:47;11.97;;;9.50;;
29940;SDS011;16801;53.562;10.038;2022-11-15T00:52:27;12.23;;;8.03;;
29940;SDS011;16801;53.562;10.038;2022-11-15T00:56:06;12.90;;;8.60;;
29940;SDS011;16801;53.562;10.038;2022-11-15T00:59:47;11.87;;;8.53;;
29940;SDS011;16801;53.562;10.038;2022-11-15T01:03:26;14.13;;;8.37;;
29940;SDS011;16801;53.562;10.038;2022-11-15T01:07:06;12.73;;;8.27;;
29940;SDS011;16801;53.562;10.038;2022-11-15T01:10:45;19.20;;;10.13;;
29940;SDS011;16801;53.562;10.038;2022-11-15T01:14:25;15.47;;;11.00;;
29940;SDS011;16801;53.562;10.038;2022-11-15T01:18:06;16.07;;;9.70;;
29940;SDS011;16801;53.562;10.038;2022-11-15T01:21:48;13.60;;;9.63;;
29940;SDS011;16801;53.562;10.038;2022-11-15T01:25:27;11.80;;;9.80;;
29940;SDS011;16801;53.562;10.038;2022-11-15T01:29:07;13.07;;;9.27;;
29940;SDS011;16801;53.562;10.038;2022-11-15T01:32:47;10.80;;;8.87;;
29940;SDS011;16801;53.562;10.038;2022-11-15T01:36:28;11.70;;;8.27;;
29940;SDS011;16801;53.562;10.038;2022-11-15T01:40:07;12.93;;;9.60;;
29940;SDS011;16801;53.562;10.038;2022-11-15T01:43:49;16.30;;;10.93;;
29940;SDS011;16801;53.562;10.038;2022-11-15T01:47:31;10.80;;;9.03;;
29940;SDS011;16801;53.562;10.038;2022-11-15T01:51:14;12.80;;;8.63;;
29940;SDS011;16801;53.562;10.038;2022-11-15T01:55:01;13.53;;;9.27;;
29940;SDS011;16801;53.562;10.038;2022-11-15T01:58:44;14.10;;;8.77;;
29940;SDS011;16801;53.562;10.038;2022-11-15T02:02:24;10.63;;;8.87;;
29940;SDS011;16801;53.562;10.038;2022-11-15T02:06:04;13.30;;;9.03;;
29940;SDS011;16801;53.562;10.038;2022-11-15T02:09:44;13.87;;;9.40;;
29940;SDS011;16801;53.562;10.038;2022-11-15T02:13:27;13.23;;;8.37;;
29940;SDS011;16801;53.562;10.038;2022-11-15T02:17:11;10.70;;;8.27;;
29940;SDS011;16801;53.562;10.038;2022-11-15T02:21:08;11.70;;;8.10;;
29940;SDS011;16801;53.562;10.038;2022-11-15T02:25:01;9.87;;;7.70;;
29940;SDS011;16801;53.562;10.038;2022-11-15T02:28:55;13.43;;;8.53;;
29940;SDS011;16801;53.562;10.038;2022-11-15T02:32:44;12.60;;;8.90;;
29940;SDS011;16801;53.562;10.038;2022-11-15T02:36:29;11.57;;;8.07;;
29940;SDS011;16801;53.562;10.038;2022-11-15T02:40:17;9.77;;;8.20;;
29940;SDS011;16801;53.562;10.038;2022-11-15T02:44:07;11.40;;;8.07;;
29940;SDS011;16801;53.562;10.038;2022-11-15T02:47:55;8.87;;;7.93;;
29940;SDS011;16801;53.562;10.038;2022-11-15T02:51:38;12.23;;;8.80;;
29940;SDS011;16801;53.562;10.038;2022-11-15T02:55:24;13.50;;;8.83;;
29940;SDS011;16801;53.562;10.038;2022-11-15T03:03:27;10.40;;;9.30;;
29940;SDS011;16801;53.562;10.038;2022-11-15T03:07:20;16.77;;;8.33;;
29940;SDS011;16801;53.562;10.038;2022-11-15T03:11:08;12.63;;;9.03;;
29940;SDS011;16801;53.562;10.038;2022-11-15T03:14:51;9.87;;;7.47;;
29940;SDS011;16801;53.562;10.038;2022-11-15T03:18:37;11.10;;;6.97;;
29940;SDS011;16801;53.562;10.038;2022-11-15T03:22:20;10.33;;;9.17;;
29940;SDS011;16801;53.562;10.038;2022-11-15T03:26:07;10.00;;;7.30;;
29940;SDS011;16801;53.562;10.038;2022-11-15T03:29:49;11.73;;;7.80;;
29940;SDS011;16801;53.562;10.038;2022-11-15T03:33:32;13.43;;;8.73;;
29940;SDS011;16801;53.562;10.038;2022-11-15T03:37:13;15.43;;;10.93;;
29940;SDS011;16801;53.562;10.038;2022-11-15T03:40:55;12.87;;;7.40;;
29940;SDS011;16801;53.562;10.038;2022-11-15T03:44:40;13.07;;;7.73;;
29940;SDS011;16801;53.562;10.038;2022-11-15T03:48:25;13.23;;;6.50;;
29940;SDS011;16801;53.562;10.038;2022-11-15T03:52:09;11.53;;;6.77;;
29940;SDS011;16801;53.562;10.038;2022-11-15T03:55:50;8.37;;;7.10;;
29940;SDS011;16801;53.562;10.038;2022-11-15T03:59:30;7.90;;;7.07;;
29940;SDS011;16801;53.562;10.038;2022-11-15T04:03:09;10.10;;;6.90;;
29940;SDS011;16801;53.562;10.038;2022-11-15T04:06:48;9.80;;;6.80;;
29940;SDS011;16801;53.562;10.038;2022-11-15T04:10:28;13.60;;;8.87;;
29940;SDS011;16801;53.562;10.038;2022-11-15T04:14:09;10.50;;;7.07;;
29940;SDS011;16801;53.562;10.038;2022-11-15T04:17:48;11.77;;;8.30;;
29940;SDS011;16801;53.562;10.038;2022-11-15T04:21:29;10.13;;;6.63;;
29940;SDS011;16801;53.562;10.038;2022-11-15T04:25:26;9.77;;;7.03;;
29940;SDS011;16801;53.562;10.038;2022-11-15T04:29:06;8.43;;;6.83;;
29940;SDS011;16801;53.562;10.038;2022-11-15T04:33:05;7.20;;;6.50;;
29940;SDS011;16801;53.562;10.038;2022-11-15T04:36:44;10.07;;;6.50;;
29940;SDS011;16801;53.562;10.038;2022-11-15T04:40:41;8.10;;;6.80;;
29940;SDS011;16801;53.562;10.038;2022-11-15T04:44:21;7.40;;;6.30;;
29940;SDS011;16801;53.562;10.038;2022-11-15T04:48:00;8.83;;;6.23;;
29940;SDS011;16801;53.562;10.038;2022-11-15T04:51:41;8.37;;;6.27;;
29940;SDS011;16801;53.562;10.038;2022-11-15T04:55:21;10.93;;;5.90;;
29940;SDS011;16801;53.562;10.038;2022-11-15T04:59:00;8.87;;;6.47;;
29940;SDS011;16801;53.562;10.038;2022-11-15T05:02:40;13.03;;;7.87;;
29940;SDS011;16801;53.562;10.038;2022-11-15T05:06:37;12.27;;;9.20;;
29940;SDS011;16801;53.562;10.038;2022-11-15T05:10:18;8.70;;;6.87;;
29940;SDS011;16801;53.562;10.038;2022-11-15T05:13:57;10.13;;;7.50;;
29940;SDS011;16801;53.562;10.038;2022-11-15T05:17:37;8.47;;;7.47;;
29940;SDS011;16801;53.562;10.038;2022-11-15T05:21:16;17.97;;;8.47;;
29940;SDS011;16801;53.562;10.038;2022-11-15T05:24:56;7.53;;;6.30;;
29940;SDS011;16801;53.562;10.038;2022-11-15T05:28:37;7.80;;;6.00;;
29940;SDS011;16801;53.562;10.038;2022-11-15T05:32:17;8.47;;;5.83;;
29940;SDS011;16801;53.562;10.038;2022-11-15T05:35:57;11.47;;;6.97;;
29940;SDS011;16801;53.562;10.038;2022-11-15T05:39:41;8.63;;;5.90;;
29940;SDS011;16801;53.562;10.038;2022-11-15T05:43:20;11.10;;;6.83;;
29940;SDS011;16801;53.562;10.038;2022-11-15T05:47:01;7.07;;;6.33;;
29940;SDS011;16801;53.562;10.038;2022-11-15T05:50:44;8.50;;;6.40;;
29940;SDS011;16801;53.562;10.038;2022-11-15T05:54:25;9.47;;;6.90;;
29940;SDS011;16801;53.562;10.038;2022-11-15T05:58:05;10.17;;;6.37;;
29940;SDS011;16801;53.562;10.038;2022-11-15T06:01:45;8.93;;;6.50;;
29940;SDS011;16801;53.562;10.038;2022-11-15T06:05:26;7.93;;;6.90;;
29940;SDS011;16801;53.562;10.038;2022-11-15T06:09:06;10.50;;;6.47;;
29940;SDS011;16801;53.562;10.038;2022-11-15T06:12:46;10.30;;;6.23;;
29940;SDS011;16801;53.562;10.038;2022-11-15T06:16:26;11.50;;;6.70;;
29940;SDS011;16801;53.562;10.038;2022-11-15T06:20:05;11.13;;;5.80;;
29940;SDS011;16801;53.562;10.038;2022-11-15T06:23:47;9.80;;;7.10;;
29940;SDS011;16801;53.562;10.038;2022-11-15T06:27:26;8.13;;;7.40;;
29940;SDS011;16801;53.562;10.038;2022-11-15T06:31:06;7.83;;;5.87;;
29940;SDS011;16801;53.562;10.038;2022-11-15T06:34:47;9.50;;;6.83;;
29940;SDS011;16801;53.562;10.038;2022-11-15T06:38:26;7.83;;;6.37;;
29940;SDS011;16801;53.562;10.038;2022-11-15T06:42:07;8.73;;;6.57;;
29940;SDS011;16801;53.562;10.038;2022-11-15T06:45:47;10.13;;;7.30;;
29940;SDS011;16801;53.562;10.038;2022-11-15T06:49:27;10.10;;;7.93;;
29940;SDS011;16801;53.562;10.038;2022-11-15T06:53:07;7.47;;;6.20;;
29940;SDS011;16801;53.562;10.038;2022-11-15T06:56:46;11.43;;;7.07;;
29940;SDS011;16801;53.562;10.038;2022-11-15T07:00:27;11.03;;;6.60;;
29940;SDS011;16801;53.562;10.038;2022-11-15T07:04:06;8.40;;;5.40;;
29940;SDS011;16801;53.562;10.038;2022-11-15T07:07:50;8.57;;;6.33;;
29940;SDS011;16801;53.562;10.038;2022-11-15T07:11:30;8.67;;;6.27;;
29940;SDS011;16801;53.562;10.038;2022-11-15T07:15:11;11.70;;;8.40;;
29940;SDS011;16801;53.562;10.038;2022-11-15T07:18:52;7.17;;;5.77;;
29940;SDS011;16801;53.562;10.038;2022-11-15T07:22:31;7.57;;;6.60;;
29940;SDS011;16801;53.562;10.038;2022-11-15T07:26:10;9.13;;;6.87;;
29940;SDS011;16801;53.562;10.038;2022-11-15T07:29:49;12.23;;;6.63;;
29940;SDS011;16801;53.562;10.038;2022-11-15T07:33:29;13.50;;;6.70;;
29940;SDS011;16801;53.562;10.038;2022-11-15T07:37:10;9.17;;;5.20;;
29940;SDS011;16801;53.562;10.038;2022-11-15T07:40:55;11.40;;;7.17;;
29940;SDS011;16801;53.562;10.038;2022-11-15T07:44:35;6.57;;;5.23;;
29940;SDS011;16801;53.562;10.038;2022-11-15T07:48:15;10.30;;;6.97;;
29940;SDS011;16801;53.562;10.038;2022-11-15T07:51:54;7.80;;;6.33;;
29940;SDS011;16801;53.562;10.038;2022-11-15T07:55:35;7.67;;;6.30;;
29940;SDS011;16801;53.562;10.038;2022-11-15T07:59:15;7.30;;;5.77;;
29940;SDS011;16801;53.562;10.038;2022-11-15T08:03:00;7.37;;;4.97;;
29940;SDS011;16801;53.562;10.038;2022-11-15T08:06:40;10.37;;;6.93;;
29940;SDS011;16801;53.562;10.038;2022-11-15T08:10:19;7.87;;;6.03;;
29940;SDS011;16801;53.562;10.038;2022-11-15T08:14:00;8.73;;;6.13;;
29940;SDS011;16801;53.562;10.038;2022-11-15T08:17:39;11.03;;;7.40;;
29940;SDS011;16801;53.562;10.038;2022-11-15T08:21:19;9.93;;;7.60;;
29940;SDS011;16801;53.562;10.038;2022-11-15T08:24:59;13.23;;;8.23;;
29940;SDS011;16801;53.562;10.038;2022-11-15T08:28:38;8.17;;;5.40;;
29940;SDS011;16801;53.562;10.038;2022-11-15T08:32:19;7.57;;;6.00;;
29940;SDS011;16801;53.562;10.038;2022-11-15T08:35:59;7.87;;;6.37;;
29940;SDS011;16801;53.562;10.038;2022-11-15T08:39:39;8.70;;;7.67;;
29940;SDS011;16801;53.562;10.038;2022-11-15T08:43:19;8.43;;;7.20;;
29940;SDS011;16801;53.562;10.038;2022-11-15T08:46:58;8.33;;;6.57;;
29940;SDS011;16801;53.562;10.038;2022-11-15T08:50:39;6.63;;;5.27;;
29940;SDS011;16801;53.562;10.038;2022-11-15T08:54:18;8.47;;;7.03;;
29940;SDS011;16801;53.562;10.038;2022-11-15T08:57:57;8.93;;;7.10;;
29940;SDS011;16801;53.562;10.038;2022-11-15T09:01:37;10.17;;;6.80;;
29940;SDS011;16801;53.562;10.038;2022-11-15T09:05:16;10.17;;;5.60;;
29940;SDS011;16801;53.562;10.038;2022-11-15T09:08:57;9.33;;;5.57;;
29940;SDS011;16801;53.562;10.038;2022-11-15T09:12:37;8.37;;;5.43;;
29940;SDS011;16801;53.562;10.038;2022-11-15T09:16:16;8.10;;;6.43;;
29940;SDS011;16801;53.562;10.038;2022-11-15T09:19:56;8.87;;;6.50;;
29940;SDS011;16801;53.562;10.038;2022-11-15T09:23:36;6.43;;;5.57;;
29940;SDS011;16801;53.562;10.038;2022-11-15T09:27:17;10.67;;;7.30;;
29940;SDS011;16801;53.562;10.038;2022-11-15T09:30:56;5.23;;;4.33;;
29940;SDS011;16801;53.562;10.038;2022-11-15T09:34:37;5.53;;;5.00;;
29940;SDS011;16801;53.562;10.038;2022-11-15T09:38:17;4.77;;;4.33;;
29940;SDS011;16801;53.562;10.038;2022-11-15T09:41:58;10.30;;;6.60;;
29940;SDS011;16801;53.562;10.038;2022-11-15T09:46:04;6.87;;;5.67;;
29940;SDS011;16801;53.562;10.038;2022-11-15T09:49:56;11.63;;;7.47;;
29940;SDS011;16801;53.562;10.038;2022-11-15T09:53:26;8.57;;;6.53;;
29940;SDS011;16801;53.562;10.038;2022-11-15T09:56:52;8.00;;;6.53;;
29940;SDS011;16801;53.562;10.038;2022-11-15T10:00:16;8.20;;;5.57;;
29940;SDS011;16801;53.562;10.038;2022-11-15T10:03:40;7.93;;;5.47;;
29940;SDS011;16801;53.562;10.038;2022-11-15T10:07:03;6.17;;;4.77;;
29940;SDS011;16801;53.562;10.038;2022-11-15T10:10:32;10.20;;;4.97;;
29940;SDS011;16801;53.562;10.038;2022-11-15T10:14:00;6.63;;;5.53;;
29940;SDS011;16801;53.562;10.038;2022-11-15T10:17:38;6.43;;;5.07;;
29940;SDS011;16801;53.562;10.038;2022-11-15T10:21:12;8.43;;;5.70;;
29940;SDS011;16801;53.562;10.038;2022-11-15T10:24:44;10.03;;;6.50;;
29940;SDS011;16801;53.562;10.038;2022-11-15T10:28:09;7.77;;;5.37;;
29940;SDS011;16801;53.562;10.038;2022-11-15T10:31:37;4.97;;;4.53;;
29940;SDS011;16801;53.562;10.038;2022-11-15T10:35:02;9.90;;;6.27;;
29940;SDS011;16801;53.562;10.038;2022-11-15T10:38:48;8.07;;;4.70;;
29940;SDS011;16801;53.562;10.038;2022-11-15T10:42:16;8.70;;;5.50;;
29940;SDS011;16801;53.562;10.038;2022-11-15T10:45:43;7.77;;;5.03;;
29940;SDS011;16801;53.562;10.038;2022-11-15T10:49:12;7.53;;;5.10;;
29940;SDS011;16801;53.562;10.038;2022-11-15T10:52:36;8.30;;;4.80;;
29940;SDS011;16801;53.562;10.038;2022-11-15T10:56:05;7.57;;;4.70;;
29940;SDS011;16801;53.562;10.038;2022-11-15T10:59:31;6.93;;;4.17;;
29940;SDS011;16801;53.562;10.038;2022-11-15T11:02:56;9.07;;;4.80;;
29940;SDS011;16801;53.562;10.038;2022-11-15T11:06:19;6.23;;;4.37;;
29940;SDS011;16801;53.562;10.038;2022-11-15T11:09:41;6.20;;;5.53;;
29940;SDS011;16801;53.562;10.038;2022-11-15T11:13:12;8.47;;;5.97;;
29940;SDS011;16801;53.562;10.038;2022-11-15T11:16:38;5.43;;;4.13;;
29940;SDS011;16801;53.562;10.038;2022-11-15T11:20:07;9.53;;;4.90;;
29940;SDS011;16801;53.562;10.038;2022-11-15T11:23:42;5.93;;;5.37;;
29940;SDS011;16801;53.562;10.038;2022-11-15T11:27:12;10.03;;;4.73;;
29940;SDS011;16801;53.562;10.038;2022-11-15T11:30:42;8.37;;;4.00;;
29940;SDS011;16801;53.562;10.038;2022-11-15T11:34:12;5.97;;;5.07;;
29940;SDS011;16801;53.562;10.038;2022-11-15T11:37:44;6.03;;;4.77;;
29940;SDS011;16801;53.562;10.038;2022-11-15T11:41:10;7.20;;;5.53;;
29940;SDS011;16801;53.562;10.038;2022-11-15T11:44:43;5.37;;;4.87;;
29940;SDS011;16801;53.562;10.038;2022-11-15T11:48:12;8.93;;;4.50;;
29940;SDS011;16801;53.562;10.038;2022-11-15T11:51:34;7.80;;;6.40;;
29940;SDS011;16801;53.562;10.038;2022-11-15T11:55:01;5.43;;;3.93;;
29940;SDS011;16801;53.562;10.038;2022-11-15T11:58:26;5.07;;;4.20;;
29940;SDS011;16801;53.562;10.038;2022-11-15T12:01:55;8.73;;;4.20;;
29940;SDS011;16801;53.562;10.038;2022-11-15T12:05:18;9.30;;;4.30;;
29940;SDS011;16801;53.562;10.038;2022-11-15T12:08:48;4.50;;;4.10;;
29940;SDS011;16801;53.562;10.038;2022-11-15T12:12:21;5.40;;;3.43;;
29940;SDS011;16801;53.562;10.038;2022-11-15T12:15:49;4.13;;;3.83;;
29940;SDS011;16801;53.562;10.038;2022-11-15T12:19:16;6.70;;;4.80;;
29940;SDS011;16801;53.562;10.038;2022-11-15T12:22:38;5.63;;;4.40;;
29940;SDS011;16801;53.562;10.038;2022-11-15T12:26:04;4.27;;;3.80;;
29940;SDS011;16801;53.562;10.038;2022-11-15T12:29:28;5.20;;;3.90;;
29940;SDS011;16801;53.562;10.038;2022-11-15T12:32:54;7.30;;;4.47;;
29940;SDS011;16801;53.562;10.038;2022-11-15T12:40:05;7.03;;;4.43;;
29940;SDS011;16801;53.562;10.038;2022-11-15T12:43:39;5.30;;;4.77;;
29940;SDS011;16801;53.562;10.038;2022-11-15T12:47:03;5.47;;;3.83;;
29940;SDS011;16801;53.562;10.038;2022-11-15T12:50:54;4.90;;;3.77;;
29940;SDS011;16801;53.562;10.038;2022-11-15T12:58:40;4.73;;;4.23;;
29940;SDS011;16801;53.562;10.038;2022-11-15T13:02:11;5.47;;;4.07;;
29940;SDS011;16801;53.562;10.038;2022-11-15T13:05:56;5.80;;;4.23;;
29940;SDS011;16801;53.562;10.038;2022-11-15T13:09:55;5.10;;;3.13;;
29940;SDS011;16801;53.562;10.038;2022-11-15T13:13:16;6.67;;;3.80;;
29940;SDS011;16801;53.562;10.038;2022-11-15T13:17:10;4.60;;;3.80;;
29940;SDS011;16801;53.562;10.038;2022-11-15T13:20:47;4.27;;;3.63;;
29940;SDS011;16801;53.562;10.038;2022-11-15T13:24:10;6.80;;;6.10;;
29940;SDS011;16801;53.562;10.038;2022-11-15T13:27:33;9.47;;;5.97;;
29940;SDS011;16801;53.562;10.038;2022-11-15T13:30:56;4.70;;;3.93;;
29940;SDS011;16801;53.562;10.038;2022-11-15T13:34:24;9.00;;;4.60;;
29940;SDS011;16801;53.562;10.038;2022-11-15T13:37:47;5.53;;;4.93;;
29940;SDS011;16801;53.562;10.038;2022-11-15T13:41:14;6.07;;;3.87;;
29940;SDS011;16801;53.562;10.038;2022-11-15T13:44:39;6.27;;;4.53;;
29940;SDS011;16801;53.562;10.038;2022-11-15T13:48:15;4.33;;;3.70;;
29940;SDS011;16801;53.562;10.038;2022-11-15T13:51:37;6.17;;;4.70;;
29940;SDS011;16801;53.562;10.038;2022-11-15T13:55:03;6.00;;;3.83;;
29940;SDS011;16801;53.562;10.038;2022-11-15T13:58:29;6.07;;;4.03;;
29940;SDS011;16801;53.562;10.038;2022-11-15T14:01:52;6.90;;;5.03;;
29940;SDS011;16801;53.562;10.038;2022-11-15T14:05:16;4.33;;;3.63;;
29940;SDS011;16801;53.562;10.038;2022-11-15T14:08:38;7.27;;;4.53;;
29940;SDS011;16801;53.562;10.038;2022-11-15T14:12:00;5.70;;;3.77;;
29940;SDS011;16801;53.562;10.038;2022-11-15T14:15:27;5.30;;;4.50;;
29940;SDS011;16801;53.562;10.038;2022-11-15T14:18:51;5.00;;;4.13;;
29940;SDS011;16801;53.562;10.038;2022-11-15T14:22:16;16.07;;;4.27;;
29940;SDS011;16801;53.562;10.038;2022-11-15T14:25:40;5.00;;;4.03;;
29940;SDS011;16801;53.562;10.038;2022-11-15T14:29:22;3.53;;;3.10;;
29940;SDS011;16801;53.562;10.038;2022-11-15T14:32:45;3.93;;;3.40;;
29940;SDS011;16801;53.562;10.038;2022-11-15T14:36:10;4.23;;;3.90;;
29940;SDS011;16801;53.562;10.038;2022-11-15T14:39:34;6.30;;;4.83;;
29940;SDS011;16801;53.562;10.038;2022-11-15T14:42:55;5.73;;;3.43;;
29940;SDS011;16801;53.562;10.038;2022-11-15T14:46:15;4.73;;;4.07;;
29940;SDS011;16801;53.562;10.038;2022-11-15T14:49:38;6.10;;;3.73;;
29940;SDS011;16801;53.562;10.038;2022-11-15T14:53:00;4.57;;;3.60;;
29940;SDS011;16801;53.562;10.038;2022-11-15T14:56:23;7.13;;;4.47;;
29940;SDS011;16801;53.562;10.038;2022-11-15T14:59:44;5.13;;;3.90;;
29940;SDS011;16801;53.562;10.038;2022-11-15T15:03:05;4.83;;;4.33;;
29940;SDS011;16801;53.562;10.038;2022-11-15T15:06:27;4.50;;;4.10;;
29940;SDS011;16801;53.562;10.038;2022-11-15T15:09:50;4.83;;;4.10;;
29940;SDS011;16801;53.562;10.038;2022-11-15T15:13:15;4.77;;;3.97;;
29940;SDS011;16801;53.562;10.038;2022-11-15T15:16:38;6.13;;;5.60;;
29940;SDS011;16801;53.562;10.038;2022-11-15T15:19:59;5.13;;;4.13;;
29940;SDS011;16801;53.562;10.038;2022-11-15T15:23:20;5.57;;;4.03;;
29940;SDS011;16801;53.562;10.038;2022-11-15T15:26:42;6.33;;;4.30;;
29940;SDS011;16801;53.562;10.038;2022-11-15T15:30:05;5.17;;;3.37;;
29940;SDS011;16801;53.562;10.038;2022-11-15T15:33:26;5.27;;;4.10;;
29940;SDS011;16801;53.562;10.038;2022-11-15T15:36:47;4.60;;;3.10;;
29940;SDS011;16801;53.562;10.038;2022-11-15T15:40:10;5.27;;;4.73;;
29940;SDS011;16801;53.562;10.038;2022-11-15T15:43:34;3.37;;;3.00;;
29940;SDS011;16801;53.562;10.038;2022-11-15T15:46:56;8.73;;;4.40;;
29940;SDS011;16801;53.562;10.038;2022-11-15T15:50:20;4.57;;;3.30;;
29940;SDS011;16801;53.562;10.038;2022-11-15T15:53:43;6.17;;;3.67;;
29940;SDS011;16801;53.562;10.038;2022-11-15T15:57:03;3.67;;;3.13;;
29940;SDS011;16801;53.562;10.038;2022-11-15T16:00:25;4.33;;;3.87;;
29940;SDS011;16801;53.562;10.038;2022-11-15T16:03:48;5.47;;;3.60;;
29940;SDS011;16801;53.562;10.038;2022-11-15T16:07:12;5.17;;;4.27;;
29940;SDS011;16801;53.562;10.038;2022-11-15T16:10:36;4.07;;;3.67;;
29940;SDS011;16801;53.562;10.038;2022-11-15T16:13:57;5.53;;;4.03;;
29940;SDS011;16801;53.562;10.038;2022-11-15T16:17:19;3.77;;;3.47;;
29940;SDS011;16801;53.562;10.038;2022-11-15T16:20:44;5.73;;;5.13;;
29940;SDS011;16801;53.562;10.038;2022-11-15T16:24:08;5.80;;;5.23;;
29940;SDS011;16801;53.562;10.038;2022-11-15T16:27:29;4.40;;;4.00;;
29940;SDS011;16801;53.562;10.038;2022-11-15T16:30:59;7.90;;;4.47;;
29940;SDS011;16801;53.562;10.038;2022-11-15T16:34:21;5.50;;;4.23;;
29940;SDS011;16801;53.562;10.038;2022-11-15T16:37:44;6.47;;;3.33;;
29940;SDS011;16801;53.562;10.038;2022-11-15T16:41:05;7.57;;;4.60;;
29940;SDS011;16801;53.562;10.038;2022-11-15T16:44:26;6.50;;;5.67;;
29940;SDS011;16801;53.562;10.038;2022-11-15T16:47:48;5.10;;;3.40;;
29940;SDS011;16801;53.562;10.038;2022-11-15T16:51:09;4.70;;;3.57;;
29940;SDS011;16801;53.562;10.038;2022-11-15T16:54:31;4.43;;;4.03;;
29940;SDS011;16801;53.562;10.038;2022-11-15T16:57:52;5.07;;;4.07;;
29940;SDS011;16801;53.562;10.038;2022-11-15T17:01:16;5.40;;;4.03;;
29940;SDS011;16801;53.562;10.038;2022-11-15T17:04:39;7.07;;;4.40;;
29940;SDS011;16801;53.562;10.038;2022-11-15T17:07:59;4.50;;;3.80;;
29940;SDS011;16801;53.562;10.038;2022-11-15T17:11:22;4.43;;;3.90;;
29940;SDS011;16801;53.562;10.038;2022-11-15T17:14:42;6.20;;;3.97;;
29940;SDS011;16801;53.562;10.038;2022-11-15T17:18:04;5.37;;;4.23;;
29940;SDS011;16801;53.562;10.038;2022-11-15T17:21:25;6.03;;;4.00;;
29940;SDS011;16801;53.562;10.038;2022-11-15T17:24:47;5.20;;;4.07;;
29940;SDS011;16801;53.562;10.038;2022-11-15T17:28:09;4.37;;;3.40;;
29940;SDS011;16801;53.562;10.038;2022-11-15T17:31:30;4.37;;;3.97;;
29940;SDS011;16801;53.562;10.038;2022-11-15T17:34:52;4.50;;;4.10;;
29940;SDS011;16801;53.562;10.038;2022-11-15T17:38:13;4.93;;;3.43;;
29940;SDS011;16801;53.562;10.038;2022-11-15T17:41:34;4.47;;;3.90;;
29940;SDS011;16801;53.562;10.038;2022-11-15T17:44:56;5.60;;;4.53;;
29940;SDS011;16801;53.562;10.038;2022-11-15T17:48:17;7.27;;;6.20;;
29940;SDS011;16801;53.562;10.038;2022-11-15T17:51:38;6.53;;;4.03;;
29940;SDS011;16801;53.562;10.038;2022-11-15T17:54:59;8.07;;;4.93;;
29940;SDS011;16801;53.562;10.038;2022-11-15T17:58:20;5.07;;;3.73;;
29940;SDS011;16801;53.562;10.038;2022-11-15T18:01:42;6.33;;;4.50;;
29940;SDS011;16801;53.562;10.038;2022-11-15T18:05:03;5.23;;;4.13;;
29940;SDS011;16801;53.562;10.038;2022-11-15T18:08:24;5.73;;;4.97;;
29940;SDS011;16801;53.562;10.038;2022-11-15T18:11:45;6.93;;;4.60;;
29940;SDS011;16801;53.562;10.038;2022-11-15T18:15:09;5.30;;;4.50;;
29940;SDS011;16801;53.562;10.038;2022-11-15T18:18:32;5.37;;;4.33;;
29940;SDS011;16801;53.562;10.038;2022-11-15T18:21:54;6.90;;;4.53;;
29940;SDS011;16801;53.562;10.038;2022-11-15T18:25:19;4.00;;;3.43;;
29940;SDS011;16801;53.562;10.038;2022-11-15T18:28:41;4.70;;;3.73;;
29940;SDS011;16801;53.562;10.038;2022-11-15T18:32:04;7.07;;;4.67;;
29940;SDS011;16801;53.562;10.038;2022-11-15T18:35:31;6.37;;;5.30;;
29940;SDS011;16801;53.562;10.038;2022-11-15T18:38:52;5.73;;;5.17;;
29940;SDS011;16801;53.562;10.038;2022-11-15T18:42:14;5.17;;;3.90;;
29940;SDS011;16801;53.562;10.038;2022-11-15T18:45:35;12.50;;;7.37;;
29940;SDS011;16801;53.562;10.038;2022-11-15T18:48:57;8.17;;;6.63;;
29940;SDS011;16801;53.562;10.038;2022-11-15T18:52:20;10.73;;;7.93;;
29940;SDS011;16801;53.562;10.038;2022-11-15T18:55:42;7.83;;;7.03;;
29940;SDS011;16801;53.562;10.038;2022-11-15T18:59:03;8.30;;;5.53;;
29940;SDS011;16801;53.562;10.038;2022-11-15T19:02:25;7.53;;;6.03;;
29940;SDS011;16801;53.562;10.038;2022-11-15T19:05:46;6.87;;;6.17;;
29940;SDS011;16801;53.562;10.038;2022-11-15T19:09:09;10.87;;;7.50;;
29940;SDS011;16801;53.562;10.038;2022-11-15T19:12:32;7.23;;;4.93;;
29940;SDS011;16801;53.562;10.038;2022-11-15T19:15:55;6.87;;;6.17;;
29940;SDS011;16801;53.562;10.038;2022-11-15T19:19:18;12.07;;;8.17;;
29940;SDS011;16801;53.562;10.038;2022-11-15T19:22:40;6.87;;;5.23;;
29940;SDS011;16801;53.562;10.038;2022-11-15T19:26:03;6.43;;;5.83;;
29940;SDS011;16801;53.562;10.038;2022-11-15T19:29:25;8.13;;;6.23;;
29940;SDS011;16801;53.562;10.038;2022-11-15T19:32:45;7.60;;;5.70;;
29940;SDS011;16801;53.562;10.038;2022-11-15T19:36:06;8.13;;;6.47;;
29940;SDS011;16801;53.562;10.038;2022-11-15T19:39:34;9.43;;;7.17;;
29940;SDS011;16801;53.562;10.038;2022-11-15T19:42:56;7.80;;;7.00;;
29940;SDS011;16801;53.562;10.038;2022-11-15T19:46:17;18.87;;;7.67;;
29940;SDS011;16801;53.562;10.038;2022-11-15T19:49:40;10.17;;;7.37;;
29940;SDS011;16801;53.562;10.038;2022-11-15T19:53:01;8.67;;;5.37;;
29940;SDS011;16801;53.562;10.038;2022-11-15T19:56:22;5.17;;;4.20;;
29940;SDS011;16801;53.562;10.038;2022-11-15T19:59:45;13.07;;;8.67;;
29940;SDS011;16801;53.562;10.038;2022-11-15T20:03:06;8.47;;;6.87;;
29940;SDS011;16801;53.562;10.038;2022-11-15T20:06:28;10.30;;;7.73;;
29940;SDS011;16801;53.562;10.038;2022-11-15T20:09:50;13.10;;;7.23;;
29940;SDS011;16801;53.562;10.038;2022-11-15T20:13:11;8.83;;;7.40;;
29940;SDS011;16801;53.562;10.038;2022-11-15T20:16:33;6.57;;;5.37;;
29940;SDS011;16801;53.562;10.038;2022-11-15T20:19:54;6.73;;;5.47;;
29940;SDS011;16801;53.562;10.038;2022-11-15T20:23:15;6.53;;;5.67;;
29940;SDS011;16801;53.562;10.038;2022-11-15T20:26:37;6.03;;;5.47;;
29940;SDS011;16801;53.562;10.038;2022-11-15T20:29:58;8.57;;;5.30;;
29940;SDS011;16801;53.562;10.038;2022-11-15T20:33:20;5.13;;;4.63;;
29940;SDS011;16801;53.562;10.038;2022-11-15T20:36:41;9.43;;;5.03;;
29940;SDS011;16801;53.562;10.038;2022-11-15T20:40:03;6.17;;;4.63;;
29940;SDS011;16801;53.562;10.038;2022-11-15T20:43:25;8.27;;;5.10;;
29940;SDS011;16801;53.562;10.038;2022-11-15T20:46:46;8.10;;;6.43;;
29940;SDS011;16801;53.562;10.038;2022-11-15T20:50:09;5.90;;;5.30;;
29940;SDS011;16801;53.562;10.038;2022-11-15T20:53:29;8.80;;;6.03;;
29940;SDS011;16801;53.562;10.038;2022-11-15T20:56:51;5.93;;;5.33;;
29940;SDS011;16801;53.562;10.038;2022-11-15T21:00:12;8.37;;;6.77;;
29940;SDS011;16801;53.562;10.038;2022-11-15T21:03:33;10.10;;;7.67;;
29940;SDS011;16801;53.562;10.038;2022-11-15T21:06:56;8.77;;;6.53;;